Anderson Township, OH

2:49 AM EDT on September 21, 2014 (GMT -0400)
APRSWXNET Cincinnati OH US | Change Station
CLOSE
Current Station
Personal Weather Station
Location: Anderson, OH
Elevation: 862 ft
Nearby Weather Stations

Elev 862 ft 39.09 °N, 84.33 °W | Updated 33 minutes ago

Clear
Clear
69 °F
Feels Like 69 °F
N
2
Wind Variable Wind from SSE
Gusts 7.0 mph

Today
High -- | Low -- °F
--% Chance of Precip.
Yesterday
High -- | Low -- °F
Precip. -- in
7:24 AM 7:36 PM
Waning Crescent, 8% visible
Pressure 29.88 in
Visibility 10.0 miles
Clouds Clear
Dew Point 65 °F
Humidity 87%
Rainfall 0.00 in
Snow Depth Not available.
UV 0 out of 12
Pollen 4.60 out of 12
Ozone Good
PM2.5 Moderate
Flu Activity Not available.
METAR KLUK 210553Z AUTO 19005KT 10SM CLR 20/18 A2989 RMK AO2 SLP119 T02000178 10222 20194 58019

More Conditions Fewer Conditions

Pressure 29.88 in
Visibility 10.0 miles
Clouds Clear
Dew Point 65 °F
Humidity 87%
Rainfall 0.00 in
Snow Depth Not available.
UV 0 out of 12
Pollen 4.60 out of 12
Ozone Good
PM2.5 Moderate
Flu Activity Not available.
METAR KLUK 210553Z AUTO 19005KT 10SM CLR 20/18 A2989 RMK AO2 SLP119 T02000178 10222 20194 58019

More Conditions Fewer Conditions

10-Day Weather Forecast

Almanac

Astronomy

Sep. 21, 2014 Rise Set
Actual Time 7:24 AM EDT 7:36 PM EDT
Civil Twilight 6:57 AM EDT 8:02 PM EDT
Nautical Twilight 6:26 AM EDT 8:34 PM EDT
Astronomical Twilight 5:54 AM EDT 9:05 PM EDT
Moon 4:58 AM EDT 6:11 PM EDT
Length of Visible Light 13h 05m
Length of Day
12h 11m
Tomorrow will be 2m 32s shorter.
Waning Crescent, 8% of the Moon is Illuminated
Today
Waning Crescent
Sep 24
New
Oct 1
First Quarter
Oct 8
Full
Oct 15
Last Quarter

Today's Extremes

State Highs State Lows

Community

WunderPhotos

Upload Photos

1,755,098 photos uploaded!

Nearby

Air Quality

  Air Quality AQ Index Pollutant
Yesterday Good
PM10
Yesterday Good
OZONE
Current Moderate
PM2.5
Current Good
OZONE
Sunday Good
PM2.5
Sunday Good
OZONE
Monday Good
PM2.5
Monday Good
OZONE

Snow Depth

Station Depth Elevation
No new snow has been reported.

Earthquake Activity

City Distance Mag. Time & Date
No recent earthquake activity has been reported nearby.
Minimum magnitude displayed is 2.5.

Coastal Water Temperatures

Place Temperature
No Stations Reporting

Nearby Weather Stations